Time;durP1;ratioP1;P1;durP2;ratioP2;P2;SDS_P1;SDS_P2;PMS_P1;PMS_P2;Temp;Humidity;BMP_temperature;BMP_pressure;BME280_temperature;BME280_humidity;BME280_pressure;Samples;Min_cycle;Max_cycle;Signal;HPM_P1;HPM_P2
2023/09/08 00:00:42;;;;;;;10.00;9.17;;;;;;;17.75;73.04;98150.69;5004113;28;20544;-78
2023/09/08 00:03:09;;;;;;;9.37;8.47;;;;;;;17.72;73.11;98141.06;5003814;28;20533;-77
2023/09/08 00:05:36;;;;;;;8.60;7.90;;;;;;;17.71;72.79;98144.88;4993148;28;20547;-78
2023/09/08 00:08:03;;;;;;;9.23;8.43;;;;;;;17.70;72.75;98143.22;4988429;28;20547;-78
2023/09/08 00:10:30;;;;;;;8.60;7.90;;;;;;;17.43;73.55;98140.22;4993368;28;20508;-78
2023/09/08 00:12:58;;;;;;;8.57;7.83;;;;;;;17.32;74.32;98149.28;4991979;28;20536;-78
2023/09/08 00:15:25;;;;;;;9.83;9.00;;;;;;;17.31;74.54;98142.13;4991347;28;20493;-77
2023/09/08 00:17:52;;;;;;;9.47;8.67;;;;;;;17.20;75.25;98144.94;4996704;28;20493;-78
2023/09/08 00:20:19;;;;;;;9.80;9.00;;;;;;;17.16;75.80;98141.00;5001271;28;20461;-78
2023/09/08 00:22:46;;;;;;;9.20;8.40;;;;;;;17.14;75.79;98138.50;5007610;28;20445;-78
2023/09/08 00:25:12;;;;;;;10.17;9.27;;;;;;;17.20;75.96;98137.56;5000594;28;20496;-78
2023/09/08 00:27:39;;;;;;;10.63;9.70;;;;;;;17.21;75.96;98136.47;4998727;28;20493;-78
2023/09/08 00:30:09;;;;;;;10.77;9.97;;;;;;;17.08;76.92;98143.03;4993482;28;20506;-78
2023/09/08 00:32:35;;;;;;;11.20;10.30;;;;;;;17.03;77.34;98147.56;4992380;28;20460;-78
2023/09/08 00:35:02;;;;;;;11.50;10.60;;;;;;;16.98;77.53;98150.19;4991358;28;20501;-78
2023/09/08 00:37:29;;;;;;;11.10;10.30;;;;;;;16.97;77.55;98143.06;4997577;28;20489;-78
2023/09/08 00:39:56;;;;;;;12.53;11.03;;;;;;;17.00;77.67;98142.56;4991431;28;20450;-78
2023/09/08 00:42:22;;;;;;;10.50;9.60;;;;;;;17.03;77.27;98142.09;4985865;28;20553;-78
2023/09/08 00:44:49;;;;;;;9.67;8.70;;;;;;;16.94;77.47;98146.28;5005664;28;20489;-77
2023/09/08 00:47:18;;;;;;;10.83;9.93;;;;;;;16.99;76.97;98146.38;5008510;28;20477;-77
2023/09/08 00:49:45;;;;;;;9.23;8.50;;;;;;;16.89;77.38;98140.72;5007275;28;20446;-77
2023/09/08 00:52:12;;;;;;;10.20;9.30;;;;;;;16.90;77.16;98143.19;4993260;28;20465;-78
2023/09/08 00:54:39;;;;;;;10.17;9.33;;;;;;;16.82;77.79;98145.47;5002065;28;20464;-77
2023/09/08 00:57:07;;;;;;;10.30;9.43;;;;;;;16.94;77.26;98138.06;4990772;28;20521;-77
2023/09/08 00:59:34;;;;;;;10.27;9.47;;;;;;;16.78;77.83;98140.47;4990286;28;20508;-77
2023/09/08 01:02:01;;;;;;;11.73;10.70;;;;;;;16.55;78.98;98134.19;4995138;28;20457;-78
2023/09/08 01:04:29;;;;;;;10.60;9.80;;;;;;;16.36;80.59;98149.84;4994777;28;20469;-77
2023/09/08 01:06:57;;;;;;;10.90;9.90;;;;;;;16.34;80.91;98141.88;5005161;28;20568;-77
2023/09/08 01:09:25;;;;;;;11.40;10.60;;;;;;;16.16;81.48;98136.53;4990829;28;20454;-76
2023/09/08 01:11:52;;;;;;;12.33;11.30;;;;;;;16.21;82.00;98150.31;5000632;28;20561;-76
2023/09/08 01:14:19;;;;;;;12.93;11.83;;;;;;;16.34;81.46;98143.78;5000500;28;20466;-76
2023/09/08 01:16:46;;;;;;;12.90;11.80;;;;;;;16.27;82.03;98146.63;5002730;28;20489;-77
2023/09/08 01:19:14;;;;;;;13.80;12.60;;;;;;;16.33;82.05;98147.56;4991145;28;20462;-76
2023/09/08 01:21:59;;;;;;;13.17;12.07;;;;;;;16.42;81.54;98143.44;4996732;28;20501;-76
2023/09/08 01:25:06;;;;;;;12.70;11.70;;;;;;;16.47;81.48;98138.09;5000991;28;20444;-76
2023/09/08 01:27:36;;;;;;;13.07;11.87;;;;;;;16.28;82.23;98152.91;4911736;29;20491;-76
2023/09/08 01:30:04;;;;;;;13.80;12.50;;;;;;;16.33;82.20;98142.09;4986984;28;20487;-76
2023/09/08 01:32:31;;;;;;;14.60;13.30;;;;;;;16.25;82.58;98153.38;4991873;28;20462;-76
2023/09/08 01:34:59;;;;;;;13.40;12.30;;;;;;;16.29;82.29;98147.22;4992330;28;20873;-77
2023/09/08 01:37:25;;;;;;;16.07;12.77;;;;;;;16.38;81.95;98153.16;4995038;28;20493;-76
2023/09/08 01:39:52;;;;;;;12.37;11.37;;;;;;;16.33;82.04;98153.88;4992639;28;20846;-76
2023/09/08 01:42:21;;;;;;;13.60;12.33;;;;;;;16.35;81.88;98153.63;4991460;28;20815;-76
2023/09/08 01:44:47;;;;;;;11.80;10.90;;;;;;;16.39;81.54;98142.00;4995051;28;20454;-77
2023/09/08 01:47:14;;;;;;;12.77;11.67;;;;;;;16.39;81.60;98142.00;4998221;28;20823;-76
2023/09/08 01:49:41;;;;;;;13.00;11.80;;;;;;;16.38;81.30;98134.03;4998820;28;20547;-76
2023/09/08 01:52:08;;;;;;;12.50;11.50;;;;;;;16.43;81.13;98142.38;4991149;28;20497;-76
2023/09/08 01:54:34;;;;;;;12.50;11.30;;;;;;;16.33;81.45;98136.66;4994719;28;20461;-76
2023/09/08 01:57:02;;;;;;;12.90;11.90;;;;;;;16.28;81.57;98139.25;4996586;28;20501;-77
2023/09/08 01:59:30;;;;;;;12.00;11.10;;;;;;;16.29;81.59;98132.72;5001122;28;20468;-76
2023/09/08 02:01:57;;;;;;;12.43;11.20;;;;;;;16.16;81.89;98135.69;4999315;28;20516;-76
2023/09/08 02:04:24;;;;;;;12.13;11.13;;;;;;;16.20;81.43;98136.88;4990404;28;20556;-76
2023/09/08 02:06:51;;;;;;;12.43;11.33;;;;;;;16.29;81.33;98133.56;4989970;28;20984;-76
2023/09/08 02:09:17;;;;;;;11.73;10.73;;;;;;;16.11;81.73;98134.50;5002039;28;20453;-76
2023/09/08 02:11:44;;;;;;;13.03;11.80;;;;;;;16.14;81.92;98146.84;5005354;28;20460;-76
2023/09/08 02:14:11;;;;;;;11.70;10.80;;;;;;;16.04;82.11;98136.50;4999682;28;21030;-76
2023/09/08 02:16:39;;;;;;;12.30;11.30;;;;;;;16.23;81.36;98141.88;4994716;28;20489;-76
2023/09/08 02:19:06;;;;;;;12.30;11.20;;;;;;;16.11;81.47;98133.66;4998867;28;20466;-76
2023/09/08 02:21:34;;;;;;;12.07;11.17;;;;;;;16.18;81.04;98133.56;5000771;28;20493;-76
2023/09/08 02:24:00;;;;;;;12.10;11.10;;;;;;;16.23;80.66;98139.16;4998732;28;20484;-76
2023/09/08 02:26:28;;;;;;;11.77;10.80;;;;;;;16.15;81.00;98131.31;5003599;28;20563;-76
2023/09/08 02:28:54;;;;;;;12.53;11.43;;;;;;;16.10;81.15;98129.28;5012064;28;20463;-76
2023/09/08 02:31:21;;;;;;;11.53;10.63;;;;;;;16.11;80.95;98126.31;5005404;28;21179;-76
2023/09/08 02:33:49;;;;;;;12.00;11.00;;;;;;;16.03;81.15;98132.09;4997032;28;21015;-76
2023/09/08 02:36:16;;;;;;;12.60;11.43;;;;;;;16.02;81.46;98129.59;4993838;28;20474;-76
2023/09/08 02:38:43;;;;;;;11.60;10.60;;;;;;;16.16;80.90;98135.69;5006286;28;20480;-76
2023/09/08 02:41:10;;;;;;;11.67;10.53;;;;;;;16.18;80.79;98139.03;4998392;28;20464;-76
2023/09/08 02:43:36;;;;;;;12.70;11.70;;;;;;;16.22;80.57;98130.13;4999580;28;20831;-76
2023/09/08 02:46:03;;;;;;;11.10;10.10;;;;;;;16.14;80.81;98127.75;5004182;28;20457;-76
2023/09/08 02:48:30;;;;;;;12.17;11.07;;;;;;;16.18;80.60;98134.41;4997236;28;20462;-76
2023/09/08 02:50:58;;;;;;;11.87;10.80;;;;;;;16.24;80.47;98127.16;4993652;28;21033;-75
2023/09/08 02:53:28;;;;;;;11.83;10.83;;;;;;;16.13;80.45;98132.38;4993692;28;20458;-76
2023/09/08 02:55:55;;;;;;;12.47;11.47;;;;;;;16.02;80.92;98143.25;5003976;28;20981;-76
2023/09/08 02:58:22;;;;;;;13.30;11.90;;;;;;;15.94;81.27;98136.22;4996967;28;20496;-76
2023/09/08 03:00:49;;;;;;;12.80;11.60;;;;;;;15.82;81.63;98134.56;4995357;28;21379;-76
2023/09/08 03:03:16;;;;;;;12.13;11.20;;;;;;;15.78;81.90;98129.56;5000685;28;20466;-75
2023/09/08 03:05:42;;;;;;;12.97;11.87;;;;;;;15.81;81.73;98128.25;5010111;28;21011;-76
2023/09/08 03:08:10;;;;;;;12.43;11.53;;;;;;;15.89;81.91;98136.13;5006772;28;20466;-76
2023/09/08 03:10:37;;;;;;;12.97;11.87;;;;;;;15.95;81.26;98135.16;4997587;28;20512;-76
2023/09/08 03:13:04;;;;;;;12.10;11.17;;;;;;;15.96;81.36;98127.81;5003667;28;20461;-76
2023/09/08 03:15:31;;;;;;;12.30;11.20;;;;;;;15.94;81.33;98133.50;4999459;28;20458;-76
2023/09/08 03:17:59;;;;;;;12.63;11.53;;;;;;;15.86;81.54;98133.84;4993568;28;20500;-76
2023/09/08 03:20:26;;;;;;;13.90;12.60;;;;;;;15.70;82.19;98127.16;4994782;28;20821;-76
2023/09/08 03:22:52;;;;;;;12.63;11.63;;;;;;;15.64;82.85;98132.72;4999365;28;21119;-76
2023/09/08 03:25:21;;;;;;;14.83;13.53;;;;;;;15.59;82.94;98135.31;4991390;28;20458;-76
2023/09/08 03:27:47;;;;;;;13.40;12.30;;;;;;;15.56;82.95;98135.75;5010015;28;20472;-76
2023/09/08 03:30:14;;;;;;;14.33;12.93;;;;;;;15.53;83.38;98131.59;5002866;28;20462;-76
2023/09/08 03:32:41;;;;;;;13.93;12.50;;;;;;;15.39;83.84;98127.38;4992813;28;20488;-76
2023/09/08 03:35:09;;;;;;;14.90;13.70;;;;;;;15.33;84.28;98131.84;5003216;28;20485;-76
2023/09/08 03:37:36;;;;;;;14.50;13.03;;;;;;;15.28;84.51;98128.13;4999136;28;20501;-78
2023/09/08 03:40:05;;;;;;;14.23;13.10;;;;;;;15.29;84.66;98125.19;4997624;28;20486;-73
2023/09/08 03:42:34;;;;;;;13.30;12.10;;;;;;;15.19;84.98;98129.53;4993028;28;20450;-75
2023/09/08 03:45:01;;;;;;;14.10;12.80;;;;;;;15.29;84.65;98130.63;4994263;28;21015;-75
2023/09/08 03:47:28;;;;;;;13.73;12.70;;;;;;;15.28;84.55;98134.44;5001110;28;20485;-75
2023/09/08 03:49:54;;;;;;;14.30;13.20;;;;;;;15.27;84.49;98132.75;4998273;28;20449;-76
2023/09/08 03:52:21;;;;;;;14.40;13.00;;;;;;;15.16;85.06;98128.09;5006927;28;20456;-74
2023/09/08 03:54:48;;;;;;;14.53;13.20;;;;;;;15.22;84.97;98129.91;4997147;28;20461;-74
2023/09/08 03:57:16;;;;;;;14.00;12.63;;;;;;;15.14;85.35;98127.50;4992151;28;20485;-74
2023/09/08 03:59:44;;;;;;;13.87;12.77;;;;;;;15.08;85.67;98129.25;5002518;28;20544;-74
2023/09/08 04:02:11;;;;;;;15.27;13.83;;;;;;;15.19;85.53;98124.91;4994293;28;20490;-74
2023/09/08 04:04:37;;;;;;;15.47;14.20;;;;;;;15.20;85.43;98134.75;5001340;28;20523;-73
2023/09/08 04:07:04;;;;;;;14.27;12.97;;;;;;;15.10;85.68;98138.03;5004141;28;20476;-74
2023/09/08 04:09:32;;;;;;;14.37;13.17;;;;;;;15.12;85.71;98141.34;4989302;28;20548;-75
2023/09/08 04:11:59;;;;;;;14.53;13.30;;;;;;;15.12;85.84;98145.97;4983670;28;20460;-74
2023/09/08 04:14:28;;;;;;;14.87;13.67;;;;;;;15.22;85.64;98145.44;4999726;28;20483;-74
2023/09/08 04:16:56;;;;;;;13.47;12.37;;;;;;;15.32;85.09;98157.44;4994373;28;20564;-75
2023/09/08 04:19:23;;;;;;;15.00;13.60;;;;;;;15.27;85.38;98146.41;4994928;28;20880;-78
2023/09/08 04:21:49;;;;;;;14.67;13.37;;;;;;;15.53;84.42;98147.13;5004140;28;20481;-75
2023/09/08 04:24:16;;;;;;;15.20;13.90;;;;;;;15.49;84.29;98151.38;5000091;28;20458;-75
2023/09/08 04:26:43;;;;;;;13.13;12.07;;;;;;;15.36;85.06;98153.19;5001462;28;20557;-75
2023/09/08 04:29:10;;;;;;;14.43;13.13;;;;;;;15.43;84.77;98147.66;4991080;28;20454;-76
2023/09/08 04:31:37;;;;;;;14.30;13.20;;;;;;;15.42;84.82;98146.00;4994252;28;20490;-73
2023/09/08 04:34:05;;;;;;;14.77;13.50;;;;;;;15.38;85.12;98145.63;5004215;28;20462;-74
2023/09/08 04:36:31;;;;;;;16.00;14.60;;;;;;;15.33;85.34;98142.75;4998974;28;20490;-73
2023/09/08 04:38:58;;;;;;;15.03;13.73;;;;;;;15.36;85.29;98146.91;4996179;28;20563;-74
2023/09/08 04:41:25;;;;;;;15.50;14.10;;;;;;;15.28;85.50;98147.22;4990329;28;20453;-74
2023/09/08 04:43:52;;;;;;;15.30;14.03;;;;;;;15.29;85.39;98152.44;4993955;28;20524;-74
2023/09/08 04:46:19;;;;;;;14.87;13.57;;;;;;;15.17;85.85;98157.03;4994189;28;20916;-75
2023/09/08 04:48:46;;;;;;;15.50;14.17;;;;;;;15.26;85.70;98152.94;4992358;28;20487;-73
2023/09/08 04:51:14;;;;;;;14.07;12.80;;;;;;;15.27;85.62;98153.78;4997931;28;20449;-75
2023/09/08 04:53:41;;;;;;;15.03;13.80;;;;;;;15.28;85.70;98156.25;4979532;28;20798;-69
2023/09/08 04:56:08;;;;;;;16.07;14.67;;;;;;;14.85;85.96;98111.94;4981419;28;20841;-69
2023/09/08 04:58:34;;;;;;;15.60;14.27;;;;;;;15.19;86.13;98157.63;4982351;28;20480;-70
2023/09/08 05:01:01;;;;;;;15.00;13.67;;;;;;;15.26;85.79;98161.13;4987205;28;20549;-69
2023/09/08 05:03:30;;;;;;;16.47;15.10;;;;;;;15.13;86.16;98158.53;4989284;28;20910;-69
2023/09/08 05:05:57;;;;;;;15.50;14.23;;;;;;;15.08;86.36;98153.78;4990076;28;21005;-69
2023/09/08 05:08:25;;;;;;;16.00;14.60;;;;;;;15.04;86.74;98155.28;4992799;28;20461;-70
2023/09/08 05:10:52;;;;;;;16.33;14.83;;;;;;;15.05;86.66;98158.84;4978221;28;21907;-69
2023/09/08 05:13:19;;;;;;;16.37;14.97;;;;;;;15.07;86.74;98159.44;4986983;28;20456;-70
2023/09/08 05:15:48;;;;;;;15.33;13.83;;;;;;;15.18;86.18;98164.16;4993960;28;20492;-69
2023/09/08 05:18:15;;;;;;;14.67;13.43;;;;;;;15.15;86.07;98159.16;4991923;28;20484;-74
2023/09/08 05:20:41;;;;;;;15.27;14.03;;;;;;;15.17;86.05;98157.03;4986436;28;22165;-75
2023/09/08 05:23:08;;;;;;;15.73;14.43;;;;;;;15.15;86.35;98161.03;4969216;28;20460;-76
2023/09/08 05:25:36;;;;;;;15.10;13.73;;;;;;;15.10;86.14;98161.72;4989142;28;20499;-76
2023/09/08 05:28:04;;;;;;;14.27;13.07;;;;;;;15.07;86.48;98165.75;4989988;28;20593;-76
2023/09/08 05:30:31;;;;;;;14.10;13.00;;;;;;;15.13;86.24;98164.00;4970869;28;20454;-73
2023/09/08 05:32:58;;;;;;;13.50;12.30;;;;;;;15.09;86.51;98162.78;4983482;28;20540;-75
2023/09/08 05:35:24;;;;;;;13.30;12.30;;;;;;;15.18;85.84;98164.16;4982681;28;20989;-75
2023/09/08 05:37:51;;;;;;;14.40;13.20;;;;;;;15.25;85.63;98170.38;4985068;28;20544;-73
2023/09/08 05:40:21;;;;;;;15.80;14.40;;;;;;;15.22;85.85;98184.44;4987985;28;20512;-77
2023/09/08 05:42:49;;;;;;;15.70;14.40;;;;;;;15.18;85.78;98171.50;4982470;28;20520;-77
2023/09/08 05:45:16;;;;;;;15.33;14.03;;;;;;;15.17;85.70;98172.56;4990766;28;20541;-73
2023/09/08 05:47:43;;;;;;;14.27;13.00;;;;;;;15.16;85.81;98177.19;4990949;28;20458;-75
2023/09/08 05:50:10;;;;;;;14.67;13.57;;;;;;;15.26;85.65;98179.38;4997300;28;20487;-72
2023/09/08 05:52:37;;;;;;;15.50;14.00;;;;;;;15.31;85.29;98177.59;4995417;28;20973;-73
2023/09/08 05:55:04;;;;;;;14.50;13.17;;;;;;;15.42;85.08;98178.72;4997508;28;20454;-73
2023/09/08 05:57:31;;;;;;;14.33;13.10;;;;;;;15.53;84.60;98180.69;4993641;28;20532;-75
2023/09/08 06:00:00;;;;;;;14.67;13.47;;;;;;;15.61;84.09;98179.56;4993591;28;20449;-76
2023/09/08 06:02:26;;;;;;;14.43;13.17;;;;;;;15.78;83.55;98183.31;4993655;28;20965;-76
2023/09/08 06:04:53;;;;;;;14.57;13.30;;;;;;;16.14;82.13;98182.34;4985982;28;20456;-84
2023/09/08 06:07:20;;;;;;;13.20;12.07;;;;;;;16.56;79.99;98180.41;4995585;28;20475;-82
2023/09/08 06:09:47;;;;;;;14.13;12.83;;;;;;;17.04;77.98;98176.56;4992288;28;20511;-82
2023/09/08 06:12:13;;;;;;;12.83;11.67;;;;;;;17.42;76.29;98174.13;4986527;28;20465;-75
2023/09/08 06:14:40;;;;;;;12.93;11.77;;;;;;;17.76;74.69;98177.00;5004910;28;20888;-75
2023/09/08 06:17:08;;;;;;;13.17;11.97;;;;;;;18.08;73.21;98177.31;4999337;28;20476;-76
2023/09/08 06:19:35;;;;;;;12.47;11.40;;;;;;;18.56;71.26;98170.41;5002047;28;20575;-76
2023/09/08 06:22:02;;;;;;;11.80;10.80;;;;;;;18.97;69.50;98169.16;4993115;28;20605;-75
2023/09/08 06:24:29;;;;;;;11.77;10.77;;;;;;;18.94;68.62;98172.41;4987802;28;20457;-75
2023/09/08 06:26:55;;;;;;;11.07;10.17;;;;;;;18.88;68.67;98176.16;4994828;28;20478;-75
2023/09/08 06:29:22;;;;;;;12.40;11.20;;;;;;;19.09;67.42;98167.97;4990459;28;23121;-79
2023/09/08 06:31:51;;;;;;;10.67;9.87;;;;;;;19.29;66.86;98178.38;4992209;28;20540;-80
2023/09/08 06:34:22;;;;;;;10.03;9.10;;;;;;;19.63;66.21;98178.28;4991840;28;20837;-81
2023/09/08 06:36:49;;;;;;;9.50;8.80;;;;;;;19.95;64.96;98181.09;4992933;28;20483;-83
2023/09/08 06:39:16;;;;;;;9.87;9.00;;;;;;;20.49;62.04;98176.38;4990353;28;20490;-84
2023/09/08 06:41:43;;;;;;;9.80;9.10;;;;;;;20.75;61.54;98170.00;4990650;28;20466;-75
2023/09/08 06:44:10;;;;;;;9.00;8.17;;;;;;;21.31;59.67;98170.38;4989305;28;20557;-77
2023/09/08 06:46:36;;;;;;;8.47;7.77;;;;;;;21.14;59.87;98167.75;4990355;28;20488;-77
2023/09/08 06:49:03;;;;;;;8.73;8.03;;;;;;;21.27;59.62;98173.91;4992726;28;20449;-78
2023/09/08 06:51:32;;;;;;;8.90;8.20;;;;;;;21.39;58.69;98175.38;4991689;28;20467;-76
2023/09/08 06:53:59;;;;;;;8.63;7.87;;;;;;;21.78;56.96;98177.69;4983930;28;20520;-77
2023/09/08 06:56:27;;;;;;;9.20;8.40;;;;;;;21.53;57.79;98186.69;4986951;28;20815;-76
2023/09/08 06:58:55;;;;;;;8.50;7.77;;;;;;;21.23;59.18;98181.88;4985267;28;21200;-76
2023/09/08 07:01:22;;;;;;;8.53;7.83;;;;;;;21.31;58.85;98181.38;4985620;28;20457;-75
2023/09/08 07:03:50;;;;;;;8.70;8.03;;;;;;;21.64;58.13;98182.06;4984786;28;20468;-76
2023/09/08 07:06:18;;;;;;;8.50;7.80;;;;;;;21.95;56.93;98177.47;4987235;28;20489;-76
2023/09/08 07:08:49;;;;;;;10.40;8.03;;;;;;;22.49;55.61;98177.84;4986900;28;20548;-77
2023/09/08 07:11:17;;;;;;;7.43;6.93;;;;;;;22.32;55.02;98177.28;4986112;28;21206;-76
2023/09/08 07:13:45;;;;;;;7.90;7.20;;;;;;;22.11;56.44;98179.16;4988162;28;20454;-77
2023/09/08 07:16:12;;;;;;;8.40;7.70;;;;;;;21.96;56.72;98179.13;4989433;28;20485;-75
2023/09/08 07:18:39;;;;;;;8.10;7.50;;;;;;;21.46;57.95;98180.59;4975849;28;21055;-76
2023/09/08 07:21:07;;;;;;;8.53;7.83;;;;;;;21.12;58.98;98185.63;4987204;28;20462;-76
2023/09/08 07:23:36;;;;;;;8.33;7.73;;;;;;;21.81;56.66;98182.66;4989735;28;20454;-76
2023/09/08 07:26:05;;;;;;;8.43;7.80;;;;;;;22.20;55.48;98185.81;4994707;28;20473;-76
2023/09/08 07:28:34;;;;;;;8.30;7.60;;;;;;;22.53;54.20;98183.63;4987114;28;20546;-76
2023/09/08 07:31:05;;;;;;;8.13;7.50;;;;;;;22.91;53.70;98179.50;4992061;28;20454;-76
2023/09/08 07:33:33;;;;;;;7.90;7.30;;;;;;;23.16;52.75;98187.72;4992545;28;20457;-75
2023/09/08 07:36:05;;;;;;;8.20;7.50;;;;;;;23.38;51.46;98179.94;4994316;28;21027;-76
2023/09/08 07:38:33;;;;;;;9.17;8.23;;;;;;;23.03;52.92;98178.09;4989725;28;20483;-76
2023/09/08 07:41:02;;;;;;;8.27;7.47;;;;;;;23.22;52.79;98185.78;4991313;28;20456;-76
2023/09/08 07:43:31;;;;;;;8.60;7.83;;;;;;;23.83;51.60;98185.56;4993765;28;20458;-76
2023/09/08 07:45:59;;;;;;;8.70;8.00;;;;;;;24.02;51.60;98184.66;4992973;28;20482;-76
2023/09/08 07:48:27;;;;;;;9.07;7.87;;;;;;;24.12;51.13;98184.56;4995203;28;20491;-75
2023/09/08 07:50:55;;;;;;;7.83;7.30;;;;;;;24.27;50.78;98180.09;4980138;28;20550;-75
2023/09/08 07:53:23;;;;;;;9.50;8.70;;;;;;;24.41;50.44;98187.44;4971124;28;21517;-76
2023/09/08 07:55:50;;;;;;;7.90;7.30;;;;;;;25.04;49.25;98187.47;4978644;28;20579;-75
2023/09/08 07:58:18;;;;;;;9.17;8.20;;;;;;;24.75;49.09;98187.44;4976010;28;20489;-76
2023/09/08 08:00:47;;;;;;;8.23;7.63;;;;;;;24.49;50.01;98174.94;4973775;28;20991;-76
2023/09/08 08:03:14;;;;;;;8.10;7.40;;;;;;;24.60;49.91;98183.97;4978404;28;20460;-75
2023/09/08 08:05:42;;;;;;;7.57;6.63;;;;;;;25.48;48.13;98177.28;4971045;28;20573;-76
2023/09/08 08:08:10;;;;;;;8.23;7.53;;;;;;;25.67;47.73;98169.88;4979166;28;20584;-75
2023/09/08 08:10:37;;;;;;;6.97;6.47;;;;;;;25.92;47.34;98175.09;4973436;28;21063;-75
2023/09/08 08:13:05;;;;;;;7.90;7.40;;;;;;;26.38;45.96;98171.66;4987618;28;20472;-76
2023/09/08 08:15:36;;;;;;;7.57;6.97;;;;;;;26.46;45.79;98164.59;4988932;28;20600;-76
2023/09/08 08:18:06;;;;;;;6.87;6.37;;;;;;;26.76;44.33;98170.47;4992429;28;20569;-77
2023/09/08 08:20:35;;;;;;;6.47;6.07;;;;;;;26.95;43.92;98172.38;4982760;28;20985;-76
2023/09/08 08:23:03;;;;;;;7.07;6.40;;;;;;;27.52;42.43;98170.19;4969401;28;20626;-76
2023/09/08 08:25:30;;;;;;;7.37;6.87;;;;;;;27.09;43.84;98174.06;4968240;28;21429;-76
2023/09/08 08:27:59;;;;;;;7.63;7.13;;;;;;;26.72;44.49;98177.75;4965406;28;20461;-76
2023/09/08 08:30:26;;;;;;;7.37;6.67;;;;;;;26.55;45.30;98173.91;4961036;28;20548;-75
2023/09/08 08:32:54;;;;;;;7.47;6.87;;;;;;;26.86;44.49;98179.75;4985154;28;20547;-76
2023/09/08 08:35:23;;;;;;;6.30;5.90;;;;;;;27.28;44.20;98173.19;4983937;28;20477;-75
2023/09/08 08:37:51;;;;;;;7.40;6.80;;;;;;;27.20;43.79;98174.72;4987387;28;20528;-76
2023/09/08 08:40:18;;;;;;;7.10;6.60;;;;;;;27.21;43.91;98175.53;4993515;28;20845;-75
2023/09/08 08:42:46;;;;;;;6.77;6.27;;;;;;;27.80;42.65;98166.28;4990418;28;20453;-76
2023/09/08 08:45:14;;;;;;;7.43;6.70;;;;;;;28.49;41.40;98172.53;4990269;28;20479;-76
2023/09/08 08:47:43;;;;;;;7.07;6.60;;;;;;;28.76;40.62;98175.19;4990014;28;20488;-76
2023/09/08 08:50:12;;;;;;;8.33;7.70;;;;;;;28.56;41.06;98172.09;4986750;28;20458;-76
2023/09/08 08:52:41;;;;;;;6.33;5.93;;;;;;;28.53;41.68;98167.16;4983177;28;20644;-77
2023/09/08 08:55:09;;;;;;;7.00;6.40;;;;;;;28.63;41.42;98166.88;4987322;28;20490;-76
2023/09/08 08:57:38;;;;;;;7.57;6.90;;;;;;;29.21;40.18;98172.38;4975686;28;20465;-76
2023/09/08 09:00:09;;;;;;;7.67;7.07;;;;;;;29.11;39.38;98167.06;4982763;28;20491;-76
2023/09/08 09:02:40;;;;;;;7.50;6.90;;;;;;;28.74;40.75;98179.44;4974954;28;20843;-75
2023/09/08 09:05:11;;;;;;;7.63;6.93;;;;;;;29.01;40.83;98168.16;4984449;28;20487;-76
2023/09/08 09:07:42;;;;;;;6.80;6.30;;;;;;;29.19;40.75;98163.50;4989004;28;20466;-77
2023/09/08 09:10:11;;;;;;;7.20;6.60;;;;;;;29.22;40.45;98165.66;4984944;28;20840;-75
2023/09/08 09:12:39;;;;;;;7.27;6.77;;;;;;;29.56;40.60;98161.38;4983208;28;20461;-77
2023/09/08 09:15:08;;;;;;;7.20;6.50;;;;;;;30.14;38.50;98157.44;4988733;28;21076;-77
2023/09/08 09:17:36;;;;;;;7.13;6.53;;;;;;;30.03;38.61;98163.31;4986666;28;22816;-77
2023/09/08 09:20:15;;;;;;;8.20;7.30;;;;;;;30.57;37.17;98161.06;4982646;28;20485;-77
2023/09/08 09:22:44;;;;;;;7.63;7.13;;;;;;;30.36;37.87;98163.69;4986504;28;20576;-77
2023/09/08 09:25:22;;;;;;;8.17;7.40;;;;;;;31.25;36.53;98162.09;4981140;28;20567;-77
2023/09/08 09:27:53;;;;;;;7.03;6.50;;;;;;;31.50;36.01;98173.53;4978607;28;20449;-77
2023/09/08 09:30:21;;;;;;;7.70;7.20;;;;;;;31.80;35.19;98171.63;4979899;28;20458;-77
2023/09/08 09:32:50;;;;;;;6.37;5.87;;;;;;;32.54;34.21;98174.56;4975948;28;21011;-77
2023/09/08 09:35:18;;;;;;;6.63;6.13;;;;;;;33.18;33.34;98165.69;4985912;28;20476;-77
2023/09/08 09:37:48;;;;;;;7.17;6.53;;;;;;;33.54;31.52;98172.56;4987316;28;21225;-77
2023/09/08 09:40:16;;;;;;;7.53;6.47;;;;;;;33.08;32.66;98170.94;4977741;28;20485;-77
2023/09/08 09:42:44;;;;;;;7.50;6.97;;;;;;;33.03;31.91;98171.97;4985743;28;20454;-76
2023/09/08 09:45:12;;;;;;;6.90;6.20;;;;;;;33.10;31.52;98165.81;4988348;28;20516;-76
2023/09/08 09:47:40;;;;;;;6.33;5.83;;;;;;;33.60;31.51;98163.56;4987849;28;20456;-76
2023/09/08 09:50:07;;;;;;;6.23;5.80;;;;;;;33.94;30.30;98159.47;4986770;28;20456;-76
2023/09/08 09:52:39;;;;;;;6.17;5.77;;;;;;;34.15;30.24;98155.69;4985650;28;22879;-76
2023/09/08 09:55:08;;;;;;;6.03;5.60;;;;;;;34.47;29.11;98149.06;4992894;28;20509;-77
2023/09/08 09:57:35;;;;;;;6.47;5.97;;;;;;;35.00;28.72;98149.81;4984819;28;20475;-76
2023/09/08 10:00:05;;;;;;;5.87;5.30;;;;;;;34.43;29.21;98148.19;4990646;28;20485;-76
2023/09/08 10:02:32;;;;;;;5.93;5.47;;;;;;;34.52;29.18;98148.00;4991159;28;20544;-75
2023/09/08 10:05:11;;;;;;;6.10;5.60;;;;;;;34.51;29.31;98144.38;4987102;28;20485;-76
2023/09/08 10:07:38;;;;;;;6.47;6.07;;;;;;;33.91;29.64;98160.19;4983785;28;20460;-76
2023/09/08 10:10:09;;;;;;;6.70;6.20;;;;;;;33.12;31.12;98155.06;4984989;28;24819;-76
2023/09/08 10:12:38;;;;;;;5.53;5.23;;;;;;;32.96;31.92;98154.88;4989295;28;20508;-76
2023/09/08 10:15:08;;;;;;;5.40;5.10;;;;;;;32.72;32.03;98153.63;4982568;28;20481;-75
2023/09/08 10:17:36;;;;;;;6.20;5.60;;;;;;;32.48;33.54;98147.09;4977171;28;20461;-79
2023/09/08 10:20:10;;;;;;;5.90;5.40;;;;;;;33.15;31.66;98151.53;4981037;28;20494;-74
2023/09/08 10:22:41;;;;;;;5.80;5.40;;;;;;;32.67;32.23;98145.41;4985536;28;20471;-73
2023/09/08 10:25:11;;;;;;;6.03;5.63;;;;;;;32.30;34.42;98143.59;4986911;28;20598;-77
2023/09/08 10:27:38;;;;;;;7.03;6.53;;;;;;;32.28;33.51;98143.13;4988185;28;20471;-75
2023/09/08 10:30:07;;;;;;;6.93;6.53;;;;;;;32.70;33.44;98138.31;4983276;28;20543;-80
2023/09/08 10:32:35;;;;;;;6.77;6.23;;;;;;;32.82;33.02;98131.94;4988213;28;20469;-77
2023/09/08 10:35:03;;;;;;;7.70;7.23;;;;;;;33.04;32.57;98131.53;4986930;28;20482;-76
2023/09/08 10:37:30;;;;;;;7.00;6.47;;;;;;;33.37;32.40;98137.94;4998789;28;20551;-76
2023/09/08 10:39:57;;;;;;;7.27;6.67;;;;;;;33.36;32.21;98139.09;4990935;28;22522;-77
2023/09/08 10:42:28;;;;;;;6.50;6.00;;;;;;;33.62;32.20;98135.13;4989146;28;20465;-77
2023/09/08 10:45:04;;;;;;;6.80;6.40;;;;;;;33.97;31.42;98124.25;4994075;28;20481;-76
2023/09/08 10:47:42;;;;;;;7.00;6.50;;;;;;;33.34;31.04;98127.41;4992395;28;20464;-75
2023/09/08 10:50:16;;;;;;;5.50;5.00;;;;;;;33.81;30.64;98126.94;4992742;28;20536;-76
2023/09/08 10:52:43;;;;;;;6.20;5.70;;;;;;;34.23;31.01;98126.66;4989146;28;20471;-76
2023/09/08 10:55:12;;;;;;;6.57;6.17;;;;;;;34.43;30.61;98127.69;4994905;28;20500;-76
2023/09/08 10:57:45;;;;;;;6.30;5.30;;;;;;;34.50;29.48;98114.63;4989876;28;21008;-76
2023/09/08 11:00:20;;;;;;;5.73;5.33;;;;;;;34.56;29.70;98123.63;4988100;28;20603;-76
2023/09/08 11:02:49;;;;;;;5.20;4.80;;;;;;;35.05;28.97;98132.69;4992952;28;20456;-76
2023/09/08 11:05:18;;;;;;;6.10;5.70;;;;;;;35.37;27.92;98129.91;4989352;28;20507;-76
2023/09/08 11:07:46;;;;;;;5.83;5.40;;;;;;;34.49;29.30;98124.25;4987038;28;20469;-74
2023/09/08 11:10:13;;;;;;;5.70;5.30;;;;;;;34.93;29.19;98132.75;4992244;28;20453;-77
2023/09/08 11:12:42;;;;;;;6.10;5.70;;;;;;;34.55;29.51;98122.81;4988564;28;20512;-76
2023/09/08 11:15:10;;;;;;;6.17;5.53;;;;;;;34.92;28.60;98122.66;4990740;28;21017;-77
2023/09/08 11:17:39;;;;;;;5.17;4.87;;;;;;;34.46;29.01;98124.94;5003271;28;20464;-77
2023/09/08 11:20:08;;;;;;;5.83;5.33;;;;;;;33.64;29.43;98128.00;4996187;28;21059;-76
2023/09/08 11:22:36;;;;;;;5.70;5.30;;;;;;;33.36;30.23;98122.25;4989523;28;20469;-76
2023/09/08 11:25:04;;;;;;;5.97;5.40;;;;;;;34.35;30.09;98116.22;4982684;28;20482;-77
2023/09/08 11:27:32;;;;;;;5.40;5.10;;;;;;;34.23;29.38;98121.84;4993278;28;20457;-76